アデレード の空港の天気 - METARとTAF

アデレード空港 ( YPAD / ADL ) - オーストラリア 南オーストラリア州アデレード
飛行場実況気象(Metar)
観測時間08/18 12:17 ACST (08/18 02:47 UTC)
風向・風速西南西 8m/s
視程10km以上
天気現象
少しの雲 雲底高度 300m
全天の4割程度の雲 雲底高度 1160m
全天の8割程度の雲 雲底高度 1520m
気温9℃
湿度76%
気圧1012hPa
METARYPAD 180247Z 25015KT 9999 FEW010 SCT038 BKN050 09/05 Q1012 FM0300 26020G32KT 9999 -SHRA FEW020 BKN035 INTER 0247/0547 25020G38KT 3000 SHRAGS FEW020 BKN025
過去の天気等 Google飛行場航空写真 Wunderground天気予報

過去48時間のMETAR

飛行場予報(TAF)
発表時間: 8/18 08:43 ACST (8/17 23:13 UTC)
予報対象時間: 18日9時 ACST ~ 19日15時 ACST
風向・風速西 11m/s 瞬間風速 18m/s
視程10km以上
天気現象弱いしゅう雨
少しの雲 雲底高度 610m
全天の8割程度の雲 雲底高度 1070m
18日15時 ACST から
風向・風速西南西 9m/s
視程10km以上
天気現象弱いしゅう雨
全天の4割程度の雲 雲底高度 1070m
19日3時 ACST から
風向・風速南西 8m/s
視程10km以上
天気現象運行に影響にある天気現象が終了
全天の4割程度の雲 雲底高度 1070m
TAF YPAD 172313Z 1800/1906 26022G35KT 9999 -SHRA FEW020 BKN035
FM180600 24018KT 9999 -SHRA SCT035
FM181800 22016KT 9999 NSW SCT035 INTER 1800/1803 26030G42KT 5000 SHRA FEW015 BKN025 INTER 1803/1812 25020G35KT 3000 SHRAGS FEW020 BKN025 INTER 1812/1818 5000 SHRAGS FEW025 BKN030